createdAt,value
2019-02-18T00:02:16.351Z,12.80
2019-02-18T00:04:49.128Z,13.00
2019-02-18T00:07:22.256Z,13.07
2019-02-18T00:09:55.773Z,21.73
2019-02-18T00:12:28.839Z,27.80
2019-02-18T00:15:01.761Z,28.50
2019-02-18T00:17:34.745Z,18.00
2019-02-18T00:20:07.897Z,14.27
2019-02-18T00:22:41.264Z,13.00
2019-02-18T00:25:15.288Z,12.90
2019-02-18T00:27:48.307Z,12.63
2019-02-18T00:30:21.299Z,13.37
2019-02-18T00:32:54.307Z,12.07
2019-02-18T00:35:27.293Z,12.67
2019-02-18T00:38:00.344Z,12.93
2019-02-18T00:40:33.324Z,13.10
2019-02-18T00:43:06.591Z,13.50
2019-02-18T00:45:39.485Z,13.40
2019-02-18T00:48:12.706Z,14.03
2019-02-18T00:50:45.390Z,13.67
2019-02-18T00:53:18.586Z,13.97
2019-02-18T00:55:51.495Z,13.23
2019-02-18T00:58:25.472Z,13.17
2019-02-18T01:00:59.657Z,13.47
2019-02-18T01:03:32.599Z,13.27
2019-02-18T01:06:05.458Z,13.90
2019-02-18T01:08:38.715Z,14.17
2019-02-18T01:11:12.060Z,14.33
2019-02-18T01:13:44.975Z,14.57
2019-02-18T01:16:18.058Z,15.20
2019-02-18T01:18:50.957Z,17.03
2019-02-18T01:21:23.945Z,16.40
2019-02-18T01:23:56.822Z,28.30
2019-02-18T01:26:29.840Z,17.23
2019-02-18T01:29:03.941Z,15.43
2019-02-18T01:31:36.886Z,16.50
2019-02-18T01:34:10.006Z,16.57
2019-02-18T01:36:42.888Z,15.70
2019-02-18T01:39:16.325Z,16.17
2019-02-18T01:41:49.445Z,13.50
2019-02-18T01:44:22.326Z,13.33
2019-02-18T01:46:55.435Z,14.30
2019-02-18T01:49:28.619Z,14.63
2019-02-18T01:52:01.688Z,14.83
2019-02-18T01:54:34.840Z,13.27
2019-02-18T01:57:07.759Z,13.53
2019-02-18T01:59:40.722Z,13.20
2019-02-18T02:02:13.922Z,13.80
2019-02-18T02:04:46.915Z,13.63
2019-02-18T02:07:19.820Z,13.40
2019-02-18T02:09:53.241Z,13.40
2019-02-18T02:12:26.737Z,12.73
2019-02-18T02:14:59.515Z,11.80
2019-02-18T02:17:32.422Z,11.90
2019-02-18T02:20:05.402Z,12.93
2019-02-18T02:22:38.442Z,12.77
2019-02-18T02:25:11.442Z,14.03
2019-02-18T02:27:44.551Z,13.50
2019-02-18T02:30:17.706Z,13.17
2019-02-18T02:32:50.856Z,12.60
2019-02-18T02:35:23.857Z,12.47
2019-02-18T02:38:07.245Z,12.53
2019-02-18T02:40:31.478Z,11.90
2019-02-18T02:43:04.481Z,13.67
2019-02-18T02:45:37.601Z,13.03
2019-02-18T02:48:10.600Z,13.57
2019-02-18T02:50:43.508Z,12.73
2019-02-18T02:53:16.653Z,12.93
2019-02-18T02:55:49.641Z,12.47
2019-02-18T02:58:23.659Z,11.87
2019-02-18T03:00:56.428Z,12.13
2019-02-18T03:03:29.178Z,12.13
2019-02-18T03:06:02.331Z,12.20
2019-02-18T03:08:35.430Z,13.17
2019-02-18T03:11:08.909Z,12.80
2019-02-18T03:13:41.772Z,13.00
2019-02-18T03:16:15.152Z,12.90
2019-02-18T03:18:48.373Z,12.37
2019-02-18T03:21:21.137Z,12.73
2019-02-18T03:23:54.048Z,13.40
2019-02-18T03:26:27.116Z,14.37
2019-02-18T03:30:09.604Z,12.77
2019-02-18T03:32:53.438Z,12.57
2019-02-18T03:35:26.570Z,12.70
2019-02-18T03:37:59.389Z,12.57
2019-02-18T03:40:32.687Z,12.93
2019-02-18T03:43:05.681Z,12.30
2019-02-18T03:45:38.530Z,12.63
2019-02-18T03:48:11.965Z,13.37
2019-02-18T03:50:44.891Z,13.30
2019-02-18T03:53:17.793Z,12.57
2019-02-18T03:55:51.376Z,12.93
2019-02-18T03:58:24.458Z,13.57
2019-02-18T04:00:57.600Z,14.83
2019-02-18T04:03:30.636Z,13.60
2019-02-18T04:06:05.177Z,14.70
2019-02-18T04:08:43.062Z,15.87
2019-02-18T04:11:14.430Z,14.80
2019-02-18T04:13:47.357Z,15.27
2019-02-18T04:16:20.381Z,15.37
2019-02-18T04:18:53.393Z,14.10
2019-02-18T04:21:26.306Z,13.40
2019-02-18T04:23:59.498Z,14.20
2019-02-18T04:26:32.416Z,12.90
2019-02-18T04:29:05.506Z,13.90
2019-02-18T04:31:38.852Z,13.57
2019-02-18T04:34:13.012Z,12.63
2019-02-18T04:36:46.031Z,12.60
2019-02-18T04:39:19.056Z,12.87
2019-02-18T04:41:52.270Z,12.77
2019-02-18T04:44:25.315Z,12.50
2019-02-18T04:46:58.409Z,14.20
2019-02-18T04:49:31.514Z,13.27
2019-02-18T04:52:04.501Z,13.60
2019-02-18T04:54:37.589Z,15.93
2019-02-18T04:57:10.553Z,16.47
2019-02-18T04:59:43.569Z,15.10
2019-02-18T05:02:16.579Z,13.97
2019-02-18T05:04:49.594Z,15.87
2019-02-18T05:07:22.555Z,18.87
2019-02-18T05:09:55.401Z,17.47
2019-02-18T05:12:28.411Z,20.73
2019-02-18T05:15:01.653Z,21.37
2019-02-18T05:17:34.706Z,15.90
2019-02-18T05:20:07.826Z,14.77
2019-02-18T05:22:40.683Z,14.70
2019-02-18T05:25:13.664Z,14.53
2019-02-18T05:27:46.930Z,19.30
2019-02-18T05:30:20.021Z,16.43
2019-02-18T05:32:53.225Z,14.83
2019-02-18T05:35:26.279Z,13.70
2019-02-18T05:37:59.409Z,13.73
